sensor_id;sensor_type;location;lat;lon;timestamp;P1;durP1;ratioP1;P2;durP2;ratioP2
45564;SDS011;31280;40.408;17.282;2022-09-09T00:04:58;27.55;;;5.80;;
45564;SDS011;31280;40.408;17.282;2022-09-09T00:07:32;18.95;;;5.50;;
45564;SDS011;31280;40.408;17.282;2022-09-09T00:12:58;20.67;;;5.28;;
45564;SDS011;31280;40.408;17.282;2022-09-09T00:21:08;19.17;;;5.55;;
45564;SDS011;31280;40.408;17.282;2022-09-09T00:23:40;20.73;;;5.35;;
45564;SDS011;31280;40.408;17.282;2022-09-09T00:26:22;20.77;;;6.57;;
45564;SDS011;31280;40.408;17.282;2022-09-09T00:29:28;23.13;;;5.68;;
45564;SDS011;31280;40.408;17.282;2022-09-09T00:32:15;21.10;;;5.93;;
45564;SDS011;31280;40.408;17.282;2022-09-09T00:35:12;21.38;;;5.88;;
45564;SDS011;31280;40.408;17.282;2022-09-09T00:37:41;17.98;;;5.25;;
45564;SDS011;31280;40.408;17.282;2022-09-09T00:45:52;18.77;;;5.95;;
45564;SDS011;31280;40.408;17.282;2022-09-09T00:48:36;20.98;;;5.70;;
45564;SDS011;31280;40.408;17.282;2022-09-09T00:51:42;20.40;;;4.68;;
45564;SDS011;31280;40.408;17.282;2022-09-09T00:57:35;17.95;;;4.85;;
45564;SDS011;31280;40.408;17.282;2022-09-09T01:00:20;18.02;;;5.45;;
45564;SDS011;31280;40.408;17.282;2022-09-09T01:11:15;19.75;;;5.70;;
45564;SDS011;31280;40.408;17.282;2022-09-09T01:13:47;19.15;;;5.57;;
45564;SDS011;31280;40.408;17.282;2022-09-09T01:16:24;19.52;;;5.82;;
45564;SDS011;31280;40.408;17.282;2022-09-09T01:18:51;18.90;;;5.45;;
45564;SDS011;31280;40.408;17.282;2022-09-09T01:27:07;16.48;;;5.15;;
45564;SDS011;31280;40.408;17.282;2022-09-09T01:29:35;18.30;;;5.68;;
45564;SDS011;31280;40.408;17.282;2022-09-09T01:35:07;20.92;;;5.18;;
45564;SDS011;31280;40.408;17.282;2022-09-09T01:37:39;21.23;;;6.05;;
45564;SDS011;31280;40.408;17.282;2022-09-09T01:40:05;23.23;;;6.05;;
45564;SDS011;31280;40.408;17.282;2022-09-09T01:42:31;20.38;;;5.95;;
45564;SDS011;31280;40.408;17.282;2022-09-09T01:44:57;20.30;;;6.03;;
45564;SDS011;31280;40.408;17.282;2022-09-09T01:47:23;28.17;;;6.07;;
45564;SDS011;31280;40.408;17.282;2022-09-09T01:49:49;18.67;;;5.13;;
45564;SDS011;31280;40.408;17.282;2022-09-09T01:52:15;28.27;;;5.30;;
45564;SDS011;31280;40.408;17.282;2022-09-09T01:54:41;19.17;;;5.28;;
45564;SDS011;31280;40.408;17.282;2022-09-09T01:57:11;26.40;;;5.57;;
45564;SDS011;31280;40.408;17.282;2022-09-09T02:10:59;20.27;;;5.88;;
45564;SDS011;31280;40.408;17.282;2022-09-09T02:13:34;25.88;;;7.47;;
45564;SDS011;31280;40.408;17.282;2022-09-09T02:16:12;24.50;;;5.82;;
45564;SDS011;31280;40.408;17.282;2022-09-09T02:18:53;21.38;;;6.60;;
45564;SDS011;31280;40.408;17.282;2022-09-09T02:21:23;17.60;;;5.72;;
45564;SDS011;31280;40.408;17.282;2022-09-09T02:23:49;23.40;;;6.25;;
45564;SDS011;31280;40.408;17.282;2022-09-09T02:26:17;18.67;;;5.18;;
45564;SDS011;31280;40.408;17.282;2022-09-09T02:28:48;22.23;;;6.60;;
45564;SDS011;31280;40.408;17.282;2022-09-09T02:31:16;22.92;;;6.30;;
45564;SDS011;31280;40.408;17.282;2022-09-09T02:33:47;14.25;;;5.97;;
45564;SDS011;31280;40.408;17.282;2022-09-09T02:38:47;25.20;;;6.32;;
45564;SDS011;31280;40.408;17.282;2022-09-09T02:41:17;17.80;;;6.85;;
45564;SDS011;31280;40.408;17.282;2022-09-09T02:43:47;19.98;;;6.45;;
45564;SDS011;31280;40.408;17.282;2022-09-09T02:49:01;25.02;;;6.43;;
45564;SDS011;31280;40.408;17.282;2022-09-09T02:52:11;16.52;;;6.53;;
45564;SDS011;31280;40.408;17.282;2022-09-09T02:54:34;27.67;;;7.73;;
45564;SDS011;31280;40.408;17.282;2022-09-09T02:59:31;32.47;;;7.20;;
45564;SDS011;31280;40.408;17.282;2022-09-09T03:01:57;25.50;;;7.25;;
45564;SDS011;31280;40.408;17.282;2022-09-09T03:04:23;24.23;;;6.55;;
45564;SDS011;31280;40.408;17.282;2022-09-09T03:06:50;26.35;;;6.05;;
45564;SDS011;31280;40.408;17.282;2022-09-09T03:09:16;22.75;;;6.13;;
45564;SDS011;31280;40.408;17.282;2022-09-09T03:11:42;22.77;;;7.53;;
45564;SDS011;31280;40.408;17.282;2022-09-09T03:14:08;26.30;;;7.30;;
45564;SDS011;31280;40.408;17.282;2022-09-09T03:16:36;20.23;;;6.05;;
45564;SDS011;31280;40.408;17.282;2022-09-09T03:19:02;27.08;;;6.65;;
45564;SDS011;31280;40.408;17.282;2022-09-09T03:21:28;23.80;;;7.20;;
45564;SDS011;31280;40.408;17.282;2022-09-09T03:23:54;25.02;;;6.45;;
45564;SDS011;31280;40.408;17.282;2022-09-09T03:26:21;18.42;;;6.68;;
45564;SDS011;31280;40.408;17.282;2022-09-09T03:28:48;16.38;;;6.40;;
45564;SDS011;31280;40.408;17.282;2022-09-09T03:31:15;22.80;;;7.07;;
45564;SDS011;31280;40.408;17.282;2022-09-09T03:33:41;20.92;;;6.75;;
45564;SDS011;31280;40.408;17.282;2022-09-09T03:36:07;20.67;;;6.57;;
45564;SDS011;31280;40.408;17.282;2022-09-09T03:38:36;25.38;;;7.75;;
45564;SDS011;31280;40.408;17.282;2022-09-09T03:41:02;18.02;;;5.78;;
45564;SDS011;31280;40.408;17.282;2022-09-09T03:43:28;25.73;;;6.20;;
45564;SDS011;31280;40.408;17.282;2022-09-09T03:45:55;26.80;;;6.80;;
45564;SDS011;31280;40.408;17.282;2022-09-09T03:48:22;21.52;;;6.40;;
45564;SDS011;31280;40.408;17.282;2022-09-09T03:50:50;21.98;;;6.68;;
45564;SDS011;31280;40.408;17.282;2022-09-09T03:53:18;18.10;;;6.45;;
45564;SDS011;31280;40.408;17.282;2022-09-09T03:55:46;21.70;;;6.82;;
45564;SDS011;31280;40.408;17.282;2022-09-09T03:58:13;21.30;;;6.32;;
45564;SDS011;31280;40.408;17.282;2022-09-09T04:00:39;21.88;;;7.40;;
45564;SDS011;31280;40.408;17.282;2022-09-09T04:03:10;16.08;;;6.57;;
45564;SDS011;31280;40.408;17.282;2022-09-09T04:05:38;25.67;;;7.30;;
45564;SDS011;31280;40.408;17.282;2022-09-09T04:08:06;19.00;;;6.22;;
45564;SDS011;31280;40.408;17.282;2022-09-09T04:10:32;22.48;;;6.25;;
45564;SDS011;31280;40.408;17.282;2022-09-09T04:12:58;20.80;;;8.23;;
45564;SDS011;31280;40.408;17.282;2022-09-09T04:15:25;22.77;;;7.97;;
45564;SDS011;31280;40.408;17.282;2022-09-09T04:17:50;20.85;;;7.80;;
45564;SDS011;31280;40.408;17.282;2022-09-09T04:20:16;23.38;;;6.72;;
45564;SDS011;31280;40.408;17.282;2022-09-09T04:22:42;20.02;;;7.82;;
45564;SDS011;31280;40.408;17.282;2022-09-09T04:25:08;14.77;;;6.65;;
45564;SDS011;31280;40.408;17.282;2022-09-09T04:27:34;24.00;;;7.07;;
45564;SDS011;31280;40.408;17.282;2022-09-09T04:30:00;20.92;;;7.70;;
45564;SDS011;31280;40.408;17.282;2022-09-09T04:32:26;22.05;;;7.18;;
45564;SDS011;31280;40.408;17.282;2022-09-09T04:34:52;21.05;;;8.02;;
45564;SDS011;31280;40.408;17.282;2022-09-09T04:37:18;25.52;;;7.47;;
45564;SDS011;31280;40.408;17.282;2022-09-09T04:39:44;20.00;;;7.53;;
45564;SDS011;31280;40.408;17.282;2022-09-09T04:42:10;22.55;;;7.88;;
45564;SDS011;31280;40.408;17.282;2022-09-09T04:44:37;23.92;;;8.15;;
45564;SDS011;31280;40.408;17.282;2022-09-09T04:47:03;18.05;;;6.65;;
45564;SDS011;31280;40.408;17.282;2022-09-09T04:49:32;27.83;;;7.07;;
45564;SDS011;31280;40.408;17.282;2022-09-09T04:51:57;24.08;;;7.65;;
45564;SDS011;31280;40.408;17.282;2022-09-09T04:54:23;20.48;;;7.57;;
45564;SDS011;31280;40.408;17.282;2022-09-09T04:56:51;16.77;;;7.82;;
45564;SDS011;31280;40.408;17.282;2022-09-09T04:59:17;20.77;;;7.75;;
45564;SDS011;31280;40.408;17.282;2022-09-09T05:01:43;23.35;;;7.88;;
45564;SDS011;31280;40.408;17.282;2022-09-09T05:04:09;15.02;;;7.00;;
45564;SDS011;31280;40.408;17.282;2022-09-09T05:06:35;32.88;;;8.05;;
45564;SDS011;31280;40.408;17.282;2022-09-09T05:09:01;22.48;;;8.55;;
45564;SDS011;31280;40.408;17.282;2022-09-09T05:11:28;21.30;;;7.85;;
45564;SDS011;31280;40.408;17.282;2022-09-09T05:13:57;20.25;;;7.45;;
45564;SDS011;31280;40.408;17.282;2022-09-09T05:16:23;23.50;;;7.85;;
45564;SDS011;31280;40.408;17.282;2022-09-09T05:18:49;30.20;;;8.40;;
45564;SDS011;31280;40.408;17.282;2022-09-09T05:21:17;30.60;;;8.00;;
45564;SDS011;31280;40.408;17.282;2022-09-09T05:23:45;21.65;;;7.50;;
45564;SDS011;31280;40.408;17.282;2022-09-09T05:26:12;25.63;;;8.27;;
45564;SDS011;31280;40.408;17.282;2022-09-09T05:28:40;18.65;;;7.55;;
45564;SDS011;31280;40.408;17.282;2022-09-09T05:31:07;23.27;;;7.38;;
45564;SDS011;31280;40.408;17.282;2022-09-09T05:33:36;21.75;;;7.43;;
45564;SDS011;31280;40.408;17.282;2022-09-09T05:36:07;18.10;;;7.03;;
45564;SDS011;31280;40.408;17.282;2022-09-09T05:38:36;27.60;;;7.20;;
45564;SDS011;31280;40.408;17.282;2022-09-09T05:41:03;21.88;;;6.97;;
45564;SDS011;31280;40.408;17.282;2022-09-09T05:43:29;24.75;;;7.65;;
45564;SDS011;31280;40.408;17.282;2022-09-09T05:46:00;32.60;;;8.70;;
45564;SDS011;31280;40.408;17.282;2022-09-09T05:48:36;20.13;;;7.72;;
45564;SDS011;31280;40.408;17.282;2022-09-09T05:51:08;15.38;;;6.50;;
45564;SDS011;31280;40.408;17.282;2022-09-09T05:53:38;24.17;;;6.85;;
45564;SDS011;31280;40.408;17.282;2022-09-09T05:56:04;17.38;;;7.78;;
45564;SDS011;31280;40.408;17.282;2022-09-09T05:58:32;30.10;;;7.60;;
45564;SDS011;31280;40.408;17.282;2022-09-09T06:01:05;21.17;;;7.18;;
45564;SDS011;31280;40.408;17.282;2022-09-09T06:03:38;23.10;;;7.43;;
45564;SDS011;31280;40.408;17.282;2022-09-09T06:06:06;25.20;;;8.07;;
45564;SDS011;31280;40.408;17.282;2022-09-09T06:08:33;19.02;;;7.07;;
45564;SDS011;31280;40.408;17.282;2022-09-09T06:11:03;22.02;;;8.25;;
45564;SDS011;31280;40.408;17.282;2022-09-09T06:13:30;25.70;;;8.25;;
45564;SDS011;31280;40.408;17.282;2022-09-09T06:15:56;37.83;;;9.82;;
45564;SDS011;31280;40.408;17.282;2022-09-09T06:18:23;26.88;;;7.47;;
45564;SDS011;31280;40.408;17.282;2022-09-09T06:20:57;23.90;;;8.48;;
45564;SDS011;31280;40.408;17.282;2022-09-09T06:23:26;25.55;;;8.50;;
45564;SDS011;31280;40.408;17.282;2022-09-09T06:26:03;22.60;;;7.80;;
45564;SDS011;31280;40.408;17.282;2022-09-09T06:28:37;19.98;;;7.93;;
45564;SDS011;31280;40.408;17.282;2022-09-09T06:31:04;22.70;;;7.63;;
45564;SDS011;31280;40.408;17.282;2022-09-09T06:33:35;21.17;;;8.90;;
45564;SDS011;31280;40.408;17.282;2022-09-09T06:36:05;16.13;;;7.22;;
45564;SDS011;31280;40.408;17.282;2022-09-09T06:38:31;23.52;;;7.38;;
45564;SDS011;31280;40.408;17.282;2022-09-09T06:40:58;25.55;;;7.47;;
45564;SDS011;31280;40.408;17.282;2022-09-09T06:43:25;28.42;;;8.10;;
45564;SDS011;31280;40.408;17.282;2022-09-09T06:46:01;21.65;;;7.13;;
45564;SDS011;31280;40.408;17.282;2022-09-09T06:48:29;26.83;;;7.85;;
45564;SDS011;31280;40.408;17.282;2022-09-09T06:51:04;17.50;;;6.63;;
45564;SDS011;31280;40.408;17.282;2022-09-09T06:53:34;24.13;;;7.47;;
45564;SDS011;31280;40.408;17.282;2022-09-09T06:56:02;21.63;;;7.60;;
45564;SDS011;31280;40.408;17.282;2022-09-09T06:58:42;23.40;;;7.55;;
45564;SDS011;31280;40.408;17.282;2022-09-09T07:01:14;28.83;;;7.30;;
45564;SDS011;31280;40.408;17.282;2022-09-09T07:03:42;28.90;;;7.93;;
45564;SDS011;31280;40.408;17.282;2022-09-09T07:06:16;24.63;;;7.35;;
45564;SDS011;31280;40.408;17.282;2022-09-09T07:08:48;21.98;;;6.63;;
45564;SDS011;31280;40.408;17.282;2022-09-09T07:11:19;21.27;;;6.15;;
45564;SDS011;31280;40.408;17.282;2022-09-09T07:13:46;23.83;;;6.47;;
45564;SDS011;31280;40.408;17.282;2022-09-09T07:16:13;25.67;;;6.85;;
45564;SDS011;31280;40.408;17.282;2022-09-09T07:18:44;25.48;;;8.10;;
45564;SDS011;31280;40.408;17.282;2022-09-09T07:21:11;29.33;;;6.35;;
45564;SDS011;31280;40.408;17.282;2022-09-09T07:23:37;21.05;;;6.18;;
45564;SDS011;31280;40.408;17.282;2022-09-09T07:26:11;18.98;;;6.53;;
45564;SDS011;31280;40.408;17.282;2022-09-09T07:28:39;24.80;;;6.47;;
45564;SDS011;31280;40.408;17.282;2022-09-09T07:31:06;26.98;;;6.40;;
45564;SDS011;31280;40.408;17.282;2022-09-09T07:33:33;27.70;;;7.40;;
45564;SDS011;31280;40.408;17.282;2022-09-09T07:36:04;25.10;;;6.85;;
45564;SDS011;31280;40.408;17.282;2022-09-09T07:38:39;22.83;;;6.53;;
45564;SDS011;31280;40.408;17.282;2022-09-09T07:41:07;20.60;;;6.07;;
45564;SDS011;31280;40.408;17.282;2022-09-09T07:43:41;17.75;;;6.88;;
45564;SDS011;31280;40.408;17.282;2022-09-09T07:46:09;27.83;;;6.68;;
45564;SDS011;31280;40.408;17.282;2022-09-09T07:48:35;19.00;;;6.97;;
45564;SDS011;31280;40.408;17.282;2022-09-09T07:51:08;22.50;;;7.13;;
45564;SDS011;31280;40.408;17.282;2022-09-09T07:53:37;26.38;;;6.95;;
45564;SDS011;31280;40.408;17.282;2022-09-09T07:56:07;24.45;;;6.68;;
45564;SDS011;31280;40.408;17.282;2022-09-09T07:58:38;24.33;;;6.88;;
45564;SDS011;31280;40.408;17.282;2022-09-09T08:01:39;22.75;;;6.53;;
45564;SDS011;31280;40.408;17.282;2022-09-09T08:04:03;24.10;;;6.90;;
45564;SDS011;31280;40.408;17.282;2022-09-09T08:06:34;26.90;;;6.70;;
45564;SDS011;31280;40.408;17.282;2022-09-09T08:09:02;24.85;;;6.32;;
45564;SDS011;31280;40.408;17.282;2022-09-09T08:11:29;23.70;;;6.47;;
45564;SDS011;31280;40.408;17.282;2022-09-09T08:13:55;26.35;;;5.97;;
45564;SDS011;31280;40.408;17.282;2022-09-09T08:16:23;19.38;;;5.18;;
45564;SDS011;31280;40.408;17.282;2022-09-09T08:18:51;17.52;;;5.57;;
45564;SDS011;31280;40.408;17.282;2022-09-09T08:21:23;19.38;;;6.03;;
45564;SDS011;31280;40.408;17.282;2022-09-09T08:23:51;19.02;;;6.28;;
45564;SDS011;31280;40.408;17.282;2022-09-09T08:26:21;14.60;;;5.47;;
45564;SDS011;31280;40.408;17.282;2022-09-09T08:28:49;15.10;;;5.82;;
45564;SDS011;31280;40.408;17.282;2022-09-09T08:31:20;22.75;;;5.63;;
45564;SDS011;31280;40.408;17.282;2022-09-09T08:33:48;16.90;;;5.10;;
45564;SDS011;31280;40.408;17.282;2022-09-09T08:36:15;16.52;;;5.53;;
45564;SDS011;31280;40.408;17.282;2022-09-09T08:38:43;13.18;;;5.28;;
45564;SDS011;31280;40.408;17.282;2022-09-09T08:44:12;15.70;;;4.78;;
45564;SDS011;31280;40.408;17.282;2022-09-09T08:47:02;20.83;;;5.47;;
45564;SDS011;31280;40.408;17.282;2022-09-09T08:52:16;15.10;;;4.78;;
45564;SDS011;31280;40.408;17.282;2022-09-09T08:58:15;17.50;;;4.88;;
45564;SDS011;31280;40.408;17.282;2022-09-09T09:00:55;27.08;;;4.65;;
45564;SDS011;31280;40.408;17.282;2022-09-09T09:12:15;15.80;;;4.97;;
45564;SDS011;31280;40.408;17.282;2022-09-09T09:14:30;21.50;;;4.97;;
45564;SDS011;31280;40.408;17.282;2022-09-09T09:17:06;23.80;;;5.13;;
45564;SDS011;31280;40.408;17.282;2022-09-09T09:19:38;24.60;;;6.28;;
45564;SDS011;31280;40.408;17.282;2022-09-09T09:27:35;14.77;;;4.20;;
45564;SDS011;31280;40.408;17.282;2022-09-09T09:30:24;20.33;;;4.80;;
45564;SDS011;31280;40.408;17.282;2022-09-09T09:32:56;18.20;;;4.78;;
45564;SDS011;31280;40.408;17.282;2022-09-09T09:35:26;17.92;;;5.88;;
45564;SDS011;31280;40.408;17.282;2022-09-09T09:37:52;22.48;;;4.50;;
45564;SDS011;31280;40.408;17.282;2022-09-09T09:40:19;19.80;;;4.97;;
45564;SDS011;31280;40.408;17.282;2022-09-09T09:43:16;20.25;;;4.78;;
45564;SDS011;31280;40.408;17.282;2022-09-09T09:45:44;17.33;;;4.38;;
45564;SDS011;31280;40.408;17.282;2022-09-09T09:48:11;11.30;;;3.70;;
45564;SDS011;31280;40.408;17.282;2022-09-09T09:53:26;20.83;;;5.68;;
45564;SDS011;31280;40.408;17.282;2022-09-09T09:56:00;19.48;;;4.80;;
45564;SDS011;31280;40.408;17.282;2022-09-09T09:58:27;16.98;;;3.67;;
45564;SDS011;31280;40.408;17.282;2022-09-09T10:00:57;24.48;;;4.65;;
45564;SDS011;31280;40.408;17.282;2022-09-09T10:03:28;16.98;;;4.07;;
45564;SDS011;31280;40.408;17.282;2022-09-09T10:06:02;19.50;;;5.18;;
45564;SDS011;31280;40.408;17.282;2022-09-09T10:08:29;15.73;;;4.80;;
45564;SDS011;31280;40.408;17.282;2022-09-09T10:13:51;13.45;;;4.60;;
45564;SDS011;31280;40.408;17.282;2022-09-09T10:16:28;22.23;;;5.10;;
45564;SDS011;31280;40.408;17.282;2022-09-09T10:19:12;21.88;;;4.07;;
45564;SDS011;31280;40.408;17.282;2022-09-09T10:21:48;17.88;;;5.18;;
45564;SDS011;31280;40.408;17.282;2022-09-09T10:30:24;16.33;;;4.25;;
45564;SDS011;31280;40.408;17.282;2022-09-09T10:38:28;18.48;;;4.28;;
45564;SDS011;31280;40.408;17.282;2022-09-09T10:41:47;22.92;;;3.90;;
45564;SDS011;31280;40.408;17.282;2022-09-09T10:46:58;16.27;;;4.10;;
45564;SDS011;31280;40.408;17.282;2022-09-09T10:55:33;19.27;;;4.30;;
45564;SDS011;31280;40.408;17.282;2022-09-09T10:58:09;21.73;;;5.00;;
45564;SDS011;31280;40.408;17.282;2022-09-09T11:00:40;12.77;;;3.65;;
45564;SDS011;31280;40.408;17.282;2022-09-09T11:03:31;30.45;;;4.47;;
45564;SDS011;31280;40.408;17.282;2022-09-09T11:06:06;21.77;;;3.92;;
45564;SDS011;31280;40.408;17.282;2022-09-09T11:08:38;17.13;;;3.85;;
45564;SDS011;31280;40.408;17.282;2022-09-09T11:11:12;22.95;;;4.75;;
45564;SDS011;31280;40.408;17.282;2022-09-09T11:16:41;16.48;;;3.67;;
45564;SDS011;31280;40.408;17.282;2022-09-09T11:21:52;20.13;;;4.53;;
45564;SDS011;31280;40.408;17.282;2022-09-09T11:40:40;15.48;;;3.70;;
45564;SDS011;31280;40.408;17.282;2022-09-09T11:45:39;15.02;;;3.67;;
45564;SDS011;31280;40.408;17.282;2022-09-09T11:51:28;22.50;;;4.63;;
45564;SDS011;31280;40.408;17.282;2022-09-09T11:53:53;11.50;;;3.27;;
45564;SDS011;31280;40.408;17.282;2022-09-09T11:59:19;18.83;;;4.60;;
45564;SDS011;31280;40.408;17.282;2022-09-09T12:01:45;17.85;;;3.47;;
45564;SDS011;31280;40.408;17.282;2022-09-09T12:12:23;22.02;;;4.03;;
45564;SDS011;31280;40.408;17.282;2022-09-09T12:14:59;21.52;;;3.53;;
45564;SDS011;31280;40.408;17.282;2022-09-09T12:17:31;15.90;;;3.40;;
45564;SDS011;31280;40.408;17.282;2022-09-09T12:22:59;23.90;;;4.70;;
45564;SDS011;31280;40.408;17.282;2022-09-09T12:33:51;18.42;;;4.03;;
45564;SDS011;31280;40.408;17.282;2022-09-09T12:36:25;23.83;;;3.95;;
45564;SDS011;31280;40.408;17.282;2022-09-09T12:38:55;17.17;;;3.60;;
45564;SDS011;31280;40.408;17.282;2022-09-09T12:41:26;22.02;;;3.88;;
45564;SDS011;31280;40.408;17.282;2022-09-09T12:44:13;18.25;;;3.47;;
45564;SDS011;31280;40.408;17.282;2022-09-09T12:46:42;14.60;;;4.03;;
45564;SDS011;31280;40.408;17.282;2022-09-09T12:52:14;20.25;;;3.60;;
45564;SDS011;31280;40.408;17.282;2022-09-09T12:55:04;17.20;;;3.75;;
45564;SDS011;31280;40.408;17.282;2022-09-09T12:57:37;16.60;;;3.53;;
45564;SDS011;31280;40.408;17.282;2022-09-09T13:00:06;16.30;;;3.88;;
45564;SDS011;31280;40.408;17.282;2022-09-09T13:02:49;20.08;;;4.22;;
45564;SDS011;31280;40.408;17.282;2022-09-09T13:05:18;14.18;;;3.63;;
45564;SDS011;31280;40.408;17.282;2022-09-09T13:07:46;17.25;;;4.00;;
45564;SDS011;31280;40.408;17.282;2022-09-09T13:10:13;18.38;;;4.30;;
45564;SDS011;31280;40.408;17.282;2022-09-09T13:12:41;22.77;;;3.67;;
45564;SDS011;31280;40.408;17.282;2022-09-09T13:15:26;15.10;;;3.50;;
45564;SDS011;31280;40.408;17.282;2022-09-09T13:17:58;19.05;;;4.28;;
45564;SDS011;31280;40.408;17.282;2022-09-09T13:20:33;18.83;;;4.35;;
45564;SDS011;31280;40.408;17.282;2022-09-09T13:22:59;14.80;;;3.47;;
45564;SDS011;31280;40.408;17.282;2022-09-09T13:25:26;19.95;;;4.20;;
45564;SDS011;31280;40.408;17.282;2022-09-09T13:30:36;15.23;;;3.78;;
45564;SDS011;31280;40.408;17.282;2022-09-09T13:38:53;20.75;;;3.58;;
45564;SDS011;31280;40.408;17.282;2022-09-09T13:41:21;14.07;;;3.60;;
45564;SDS011;31280;40.408;17.282;2022-09-09T13:43:50;19.48;;;4.00;;
45564;SDS011;31280;40.408;17.282;2022-09-09T13:46:36;18.73;;;4.00;;
45564;SDS011;31280;40.408;17.282;2022-09-09T13:54:00;21.05;;;3.92;;
45564;SDS011;31280;40.408;17.282;2022-09-09T13:56:26;15.23;;;4.90;;
45564;SDS011;31280;40.408;17.282;2022-09-09T13:58:52;18.15;;;3.58;;
45564;SDS011;31280;40.408;17.282;2022-09-09T14:01:18;14.88;;;2.90;;
45564;SDS011;31280;40.408;17.282;2022-09-09T14:03:44;22.40;;;3.65;;
45564;SDS011;31280;40.408;17.282;2022-09-09T14:06:10;15.40;;;3.47;;
45564;SDS011;31280;40.408;17.282;2022-09-09T14:08:36;13.27;;;3.70;;
45564;SDS011;31280;40.408;17.282;2022-09-09T14:11:03;15.15;;;2.92;;
45564;SDS011;31280;40.408;17.282;2022-09-09T14:13:29;16.70;;;3.53;;
45564;SDS011;31280;40.408;17.282;2022-09-09T14:15:55;19.20;;;3.65;;
45564;SDS011;31280;40.408;17.282;2022-09-09T14:18:21;16.15;;;3.63;;
45564;SDS011;31280;40.408;17.282;2022-09-09T14:20:48;17.83;;;3.67;;
45564;SDS011;31280;40.408;17.282;2022-09-09T14:23:16;15.55;;;3.13;;
45564;SDS011;31280;40.408;17.282;2022-09-09T14:25:42;14.65;;;3.78;;
45564;SDS011;31280;40.408;17.282;2022-09-09T14:28:09;21.73;;;3.30;;
45564;SDS011;31280;40.408;17.282;2022-09-09T14:30:38;19.85;;;3.92;;
45564;SDS011;31280;40.408;17.282;2022-09-09T14:33:06;11.63;;;2.78;;
45564;SDS011;31280;40.408;17.282;2022-09-09T14:35:33;21.73;;;3.78;;
45564;SDS011;31280;40.408;17.282;2022-09-09T14:38:02;14.45;;;3.50;;
45564;SDS011;31280;40.408;17.282;2022-09-09T14:40:29;20.30;;;3.90;;
45564;SDS011;31280;40.408;17.282;2022-09-09T14:42:55;17.67;;;3.65;;
45564;SDS011;31280;40.408;17.282;2022-09-09T14:45:23;25.20;;;4.00;;
45564;SDS011;31280;40.408;17.282;2022-09-09T14:47:50;23.27;;;4.45;;
45564;SDS011;31280;40.408;17.282;2022-09-09T14:50:17;23.52;;;4.15;;
45564;SDS011;31280;40.408;17.282;2022-09-09T14:52:44;20.27;;;3.85;;
45564;SDS011;31280;40.408;17.282;2022-09-09T14:55:10;17.95;;;3.53;;
45564;SDS011;31280;40.408;17.282;2022-09-09T14:57:36;16.40;;;3.85;;
45564;SDS011;31280;40.408;17.282;2022-09-09T15:00:05;16.30;;;3.33;;
45564;SDS011;31280;40.408;17.282;2022-09-09T15:02:32;20.45;;;3.97;;
45564;SDS011;31280;40.408;17.282;2022-09-09T15:04:58;19.77;;;4.03;;
45564;SDS011;31280;40.408;17.282;2022-09-09T15:07:24;23.77;;;3.80;;
45564;SDS011;31280;40.408;17.282;2022-09-09T15:09:54;17.73;;;3.88;;
45564;SDS011;31280;40.408;17.282;2022-09-09T15:12:20;20.30;;;4.03;;
45564;SDS011;31280;40.408;17.282;2022-09-09T15:14:46;26.63;;;4.57;;
45564;SDS011;31280;40.408;17.282;2022-09-09T15:17:13;27.05;;;3.47;;
45564;SDS011;31280;40.408;17.282;2022-09-09T15:19:39;23.65;;;3.67;;
45564;SDS011;31280;40.408;17.282;2022-09-09T15:22:05;15.93;;;3.53;;
45564;SDS011;31280;40.408;17.282;2022-09-09T15:24:32;20.80;;;3.22;;
45564;SDS011;31280;40.408;17.282;2022-09-09T15:26:58;18.88;;;3.85;;
45564;SDS011;31280;40.408;17.282;2022-09-09T15:29:24;30.65;;;3.83;;
45564;SDS011;31280;40.408;17.282;2022-09-09T15:31:50;17.73;;;3.70;;
45564;SDS011;31280;40.408;17.282;2022-09-09T15:34:18;18.83;;;3.80;;
45564;SDS011;31280;40.408;17.282;2022-09-09T15:36:44;18.58;;;3.55;;
45564;SDS011;31280;40.408;17.282;2022-09-09T15:39:14;18.98;;;3.42;;
45564;SDS011;31280;40.408;17.282;2022-09-09T15:41:41;24.98;;;4.75;;
45564;SDS011;31280;40.408;17.282;2022-09-09T15:44:08;16.17;;;3.97;;
45564;SDS011;31280;40.408;17.282;2022-09-09T15:49:15;17.90;;;3.80;;
45564;SDS011;31280;40.408;17.282;2022-09-09T15:51:47;25.60;;;4.85;;
45564;SDS011;31280;40.408;17.282;2022-09-09T15:54:18;19.67;;;3.08;;
45564;SDS011;31280;40.408;17.282;2022-09-09T15:56:46;21.33;;;3.72;;
45564;SDS011;31280;40.408;17.282;2022-09-09T15:59:13;19.83;;;4.28;;
45564;SDS011;31280;40.408;17.282;2022-09-09T16:01:40;24.38;;;3.85;;
45564;SDS011;31280;40.408;17.282;2022-09-09T16:04:07;22.38;;;4.60;;
45564;SDS011;31280;40.408;17.282;2022-09-09T16:06:33;23.05;;;4.85;;
45564;SDS011;31280;40.408;17.282;2022-09-09T16:09:00;25.58;;;4.50;;
45564;SDS011;31280;40.408;17.282;2022-09-09T16:11:34;20.33;;;4.20;;
45564;SDS011;31280;40.408;17.282;2022-09-09T16:14:01;18.75;;;4.20;;
45564;SDS011;31280;40.408;17.282;2022-09-09T16:16:28;19.58;;;4.07;;
45564;SDS011;31280;40.408;17.282;2022-09-09T16:18:56;21.33;;;4.13;;
45564;SDS011;31280;40.408;17.282;2022-09-09T16:21:27;26.00;;;4.15;;
45564;SDS011;31280;40.408;17.282;2022-09-09T16:23:59;18.85;;;4.03;;
45564;SDS011;31280;40.408;17.282;2022-09-09T16:26:26;24.17;;;4.28;;
45564;SDS011;31280;40.408;17.282;2022-09-09T16:28:52;23.00;;;5.53;;
45564;SDS011;31280;40.408;17.282;2022-09-09T16:31:20;22.35;;;4.38;;
45564;SDS011;31280;40.408;17.282;2022-09-09T16:33:48;25.58;;;4.40;;
45564;SDS011;31280;40.408;17.282;2022-09-09T16:36:16;25.80;;;4.75;;
45564;SDS011;31280;40.408;17.282;2022-09-09T16:38:47;26.45;;;4.35;;
45564;SDS011;31280;40.408;17.282;2022-09-09T16:41:13;20.45;;;4.22;;
45564;SDS011;31280;40.408;17.282;2022-09-09T16:43:40;31.05;;;4.82;;
45564;SDS011;31280;40.408;17.282;2022-09-09T16:46:18;22.58;;;4.25;;
45564;SDS011;31280;40.408;17.282;2022-09-09T16:48:45;23.58;;;4.80;;
45564;SDS011;31280;40.408;17.282;2022-09-09T16:51:34;26.92;;;4.72;;
45564;SDS011;31280;40.408;17.282;2022-09-09T16:54:01;29.38;;;4.75;;
45564;SDS011;31280;40.408;17.282;2022-09-09T16:56:30;23.15;;;4.65;;
45564;SDS011;31280;40.408;17.282;2022-09-09T16:59:00;22.77;;;4.50;;
45564;SDS011;31280;40.408;17.282;2022-09-09T17:01:32;15.73;;;4.78;;
45564;SDS011;31280;40.408;17.282;2022-09-09T17:04:03;21.85;;;4.60;;
45564;SDS011;31280;40.408;17.282;2022-09-09T17:06:31;16.08;;;4.35;;
45564;SDS011;31280;40.408;17.282;2022-09-09T17:09:03;14.07;;;3.90;;
45564;SDS011;31280;40.408;17.282;2022-09-09T17:11:33;19.77;;;4.55;;
45564;SDS011;31280;40.408;17.282;2022-09-09T17:13:59;15.57;;;4.10;;
45564;SDS011;31280;40.408;17.282;2022-09-09T17:16:27;17.08;;;4.00;;
45564;SDS011;31280;40.408;17.282;2022-09-09T17:18:55;24.20;;;3.95;;
45564;SDS011;31280;40.408;17.282;2022-09-09T17:21:22;22.63;;;3.65;;
45564;SDS011;31280;40.408;17.282;2022-09-09T17:23:50;22.10;;;4.38;;
45564;SDS011;31280;40.408;17.282;2022-09-09T17:26:18;19.90;;;3.95;;
45564;SDS011;31280;40.408;17.282;2022-09-09T17:28:45;20.55;;;4.25;;
45564;SDS011;31280;40.408;17.282;2022-09-09T17:31:11;23.75;;;4.03;;
45564;SDS011;31280;40.408;17.282;2022-09-09T17:33:40;17.83;;;4.50;;